Time;durP1;ratioP1;P1;durP2;ratioP2;P2;SDS_P1;SDS_P2;PMS_P1;PMS_P2;Temp;Humidity;BMP_temperature;BMP_pressure;BME280_temperature;BME280_humidity;BME280_pressure;Samples;Min_cycle;Max_cycle;Signal;HPM_P1;HPM_P2
2021/11/23 00:00:31;;;;;;;14.50;9.43;;;1.70;98.00;;;;;;5034363;28;20036;-76
2021/11/23 00:02:56;;;;;;;13.00;9.05;;;1.60;98.00;;;;;;5034992;28;20029;-74
2021/11/23 00:05:22;;;;;;;14.75;9.98;;;1.60;98.00;;;;;;5032971;28;20144;-75
2021/11/23 00:07:48;;;;;;;14.63;10.27;;;1.50;98.00;;;;;;5035522;28;20160;-75
2021/11/23 00:10:14;;;;;;;15.07;10.63;;;1.50;98.00;;;;;;5028150;28;20040;-75
2021/11/23 00:12:43;;;;;;;14.07;9.68;;;1.40;98.00;;;;;;5034270;28;20100;-75
2021/11/23 00:15:10;;;;;;;16.20;10.55;;;1.40;98.00;;;;;;5033917;28;20087;-73
2021/11/23 00:17:36;;;;;;;16.55;11.07;;;1.30;98.00;;;;;;5027701;28;20021;-74
2021/11/23 00:20:04;;;;;;;14.75;10.32;;;1.30;98.00;;;;;;5035562;28;20177;-75
2021/11/23 00:22:31;;;;;;;14.82;10.30;;;1.30;98.00;;;;;;5035425;28;20022;-77
2021/11/23 00:24:57;;;;;;;16.48;11.02;;;1.20;98.00;;;;;;5034290;28;20073;-75
2021/11/23 00:27:23;;;;;;;18.05;11.65;;;1.20;98.00;;;;;;5032809;28;20029;-75
2021/11/23 00:29:49;;;;;;;13.98;9.98;;;1.10;98.00;;;;;;5034924;28;20132;-75
2021/11/23 00:32:15;;;;;;;15.13;10.10;;;1.00;98.00;;;;;;5035356;28;20030;-76
2021/11/23 00:34:41;;;;;;;16.52;11.38;;;1.00;98.00;;;;;;5033970;28;20109;-75
2021/11/23 00:37:07;;;;;;;17.08;11.35;;;1.00;98.00;;;;;;5033181;28;20113;-75
2021/11/23 00:39:33;;;;;;;14.20;10.15;;;0.90;98.00;;;;;;5032698;28;20033;-75
2021/11/23 00:41:59;;;;;;;16.38;10.82;;;0.80;98.00;;;;;;5034167;28;20018;-76
2021/11/23 00:44:28;;;;;;;15.35;10.45;;;0.80;98.00;;;;;;5025792;28;20028;-75
2021/11/23 00:46:54;;;;;;;13.00;9.10;;;0.70;98.00;;;;;;5034557;28;20053;-75
2021/11/23 00:49:19;;;;;;;16.25;10.38;;;0.60;98.00;;;;;;5035108;28;20057;-75
2021/11/23 00:51:45;;;;;;;15.68;10.65;;;0.60;98.00;;;;;;5035168;28;20026;-75
2021/11/23 00:54:11;;;;;;;18.85;11.57;;;0.50;98.00;;;;;;5034052;28;20096;-75
2021/11/23 00:56:43;;;;;;;16.73;11.82;;;0.40;98.00;;;;;;5032625;28;20025;-76
2021/11/23 00:59:08;;;;;;;16.55;11.80;;;0.30;98.00;;;;;;5044258;28;20436;-75
2021/11/23 01:01:34;;;;;;;17.55;12.15;;;0.30;98.00;;;;;;5038431;28;20029;-75
2021/11/23 01:04:00;;;;;;;19.45;13.50;;;0.20;98.00;;;;;;5031818;28;20371;-75
2021/11/23 01:06:25;;;;;;;20.58;13.57;;;0.20;98.00;;;;;;5018571;28;20045;-75
2021/11/23 01:08:51;;;;;;;23.35;15.65;;;0.10;98.00;;;;;;5024415;28;20452;-75
2021/11/23 01:11:19;;;;;;;19.45;13.23;;;0.10;98.00;;;;;;5018500;28;20026;-75
2021/11/23 01:13:46;;;;;;;22.23;13.82;;;0.00;98.00;;;;;;5026218;28;20433;-76
2021/11/23 01:16:12;;;;;;;20.90;13.85;;;0.00;98.00;;;;;;5021968;28;20030;-75
2021/11/23 01:18:38;;;;;;;25.25;16.40;;;0.00;98.00;;;;;;5016389;28;20427;-75
2021/11/23 01:21:05;;;;;;;22.38;14.57;;;-0.10;98.00;;;;;;5021093;28;20033;-75
2021/11/23 01:23:32;;;;;;;22.23;14.05;;;0.00;97.80;;;;;;5031336;28;20030;-75
2021/11/23 01:25:57;;;;;;;22.25;14.57;;;0.00;97.90;;;;;;5028424;28;20029;-76
2021/11/23 01:28:24;;;;;;;20.77;14.07;;;0.00;98.00;;;;;;5023741;28;20045;-76
2021/11/23 01:30:50;;;;;;;22.30;13.90;;;-0.10;98.00;;;;;;5028558;28;20049;-76
2021/11/23 01:33:17;;;;;;;20.20;13.98;;;-0.10;98.00;;;;;;5032816;28;20034;-75
2021/11/23 01:35:43;;;;;;;20.85;13.45;;;-0.20;98.00;;;;;;5029776;28;20029;-76
2021/11/23 01:38:09;;;;;;;20.05;13.30;;;-0.20;98.00;;;;;;5029145;28;20017;-76
2021/11/23 01:40:35;;;;;;;20.70;13.32;;;-0.30;98.00;;;;;;5029601;28;20034;-75
2021/11/23 01:43:06;;;;;;;20.45;14.05;;;-0.40;98.00;;;;;;5036199;28;20076;-76
2021/11/23 01:45:36;;;;;;;23.33;15.20;;;-0.40;97.90;;;;;;5035273;28;20052;-76
2021/11/23 01:48:02;;;;;;;20.42;14.10;;;-0.40;97.70;;;;;;5037403;28;20061;-75
2021/11/23 01:50:28;;;;;;;23.60;15.57;;;-0.40;97.40;;;;;;5036371;28;20091;-76
2021/11/23 01:52:56;;;;;;;23.00;15.52;;;-0.40;97.10;;;;;;5040301;28;20369;-75
2021/11/23 01:55:22;;;;;;;27.38;16.85;;;-0.30;97.00;;;;;;5035080;28;20028;-74
2021/11/23 01:57:48;;;;;;;26.50;17.27;;;-0.30;97.10;;;;;;5033508;28;20037;-74
2021/11/23 02:00:14;;;;;;;26.02;16.88;;;-0.40;97.00;;;;;;5035512;28;20021;-74
2021/11/23 02:02:41;;;;;;;27.95;17.77;;;-0.40;96.70;;;;;;5036492;28;20041;-74
2021/11/23 02:05:07;;;;;;;25.02;16.67;;;-0.40;96.60;;;;;;5035956;28;20025;-74
2021/11/23 02:07:33;;;;;;;26.67;17.15;;;-0.30;96.50;;;;;;5035942;28;20025;-75
2021/11/23 02:09:59;;;;;;;26.10;16.77;;;-0.30;96.40;;;;;;5034359;28;20339;-75
2021/11/23 02:12:26;;;;;;;30.40;18.60;;;-0.30;96.20;;;;;;5035772;28;20030;-76
2021/11/23 02:14:52;;;;;;;24.45;16.02;;;-0.30;96.30;;;;;;5036715;28;20415;-76
2021/11/23 02:17:17;;;;;;;30.98;19.60;;;-0.30;96.50;;;;;;5036224;28;20034;-75
2021/11/23 02:19:55;;;;;;;27.25;17.38;;;-0.40;96.70;;;;;;5037141;28;20033;-76
2021/11/23 02:22:21;;;;;;;26.75;17.67;;;-0.40;96.90;;;;;;5036736;28;20026;-75
2021/11/23 02:24:48;;;;;;;27.67;17.13;;;-0.60;96.70;;;;;;5034170;28;20032;-75
2021/11/23 02:27:13;;;;;;;28.50;18.45;;;-0.60;96.60;;;;;;5035061;28;20434;-75
2021/11/23 02:29:39;;;;;;;28.60;18.35;;;-0.70;96.70;;;;;;5017668;28;20034;-75
2021/11/23 02:32:05;;;;;;;30.70;18.95;;;-0.80;96.10;;;;;;5035298;28;20029;-75
2021/11/23 02:34:31;;;;;;;29.58;18.05;;;-0.80;96.00;;;;;;5037320;28;20060;-75
2021/11/23 02:36:57;;;;;;;28.17;18.23;;;-0.80;95.90;;;;;;5035065;28;20052;-75
2021/11/23 02:39:23;;;;;;;26.52;17.30;;;-0.90;95.80;;;;;;5035324;28;20053;-75
2021/11/23 02:41:49;;;;;;;30.35;18.77;;;-0.90;95.90;;;;;;5034342;28;20071;-75
2021/11/23 02:44:14;;;;;;;31.17;19.23;;;-1.00;95.60;;;;;;5036152;28;20037;-75
2021/11/23 02:46:41;;;;;;;32.95;20.40;;;-1.00;94.90;;;;;;5032144;28;20440;-75
2021/11/23 02:49:06;;;;;;;34.03;21.00;;;-0.90;95.30;;;;;;5030546;28;20060;-75
2021/11/23 02:51:34;;;;;;;32.78;19.70;;;-1.00;95.20;;;;;;5028255;28;20071;-75
2021/11/23 02:54:00;;;;;;;35.45;20.55;;;-1.00;95.10;;;;;;5023874;28;20068;-75
2021/11/23 02:56:26;;;;;;;31.80;19.40;;;-1.10;94.80;;;;;;5024104;28;20058;-75
2021/11/23 02:58:52;;;;;;;37.30;21.23;;;-1.00;94.20;;;;;;5035897;28;20068;-75
2021/11/23 03:01:24;;;;;;;34.42;20.83;;;-1.00;94.30;;;;;;5035254;28;20057;-75
2021/11/23 03:03:51;;;;;;;32.45;19.85;;;-1.00;94.00;;;;;;5035237;28;20032;-75
2021/11/23 03:06:17;;;;;;;36.75;22.33;;;-1.00;94.20;;;;;;5033075;28;20030;-75
2021/11/23 03:08:47;;;;;;;34.92;20.08;;;-1.00;94.30;;;;;;5029521;28;20683;-75
2021/11/23 03:11:15;;;;;;;30.92;19.25;;;-1.10;94.50;;;;;;5035397;28;20418;-75
2021/11/23 03:13:42;;;;;;;28.75;18.80;;;-1.10;94.30;;;;;;5035333;28;20292;-75
2021/11/23 03:16:07;;;;;;;33.55;20.35;;;-1.20;94.30;;;;;;5031786;28;20045;-75
2021/11/23 03:18:33;;;;;;;41.85;23.20;;;-1.20;94.10;;;;;;5040566;28;20506;-75
2021/11/23 03:20:59;;;;;;;34.53;20.63;;;-1.30;94.50;;;;;;5054505;28;20025;-75
2021/11/23 03:23:25;;;;;;;31.38;20.35;;;-1.30;94.40;;;;;;5045765;28;20029;-75
2021/11/23 03:25:51;;;;;;;38.25;22.75;;;-1.30;94.10;;;;;;5036465;28;20084;-75
2021/11/23 03:28:17;;;;;;;36.67;21.50;;;-1.40;93.70;;;;;;5034345;28;20033;-75
2021/11/23 03:30:43;;;;;;;34.65;20.92;;;-1.40;93.80;;;;;;5030364;28;20044;-75
2021/11/23 03:33:09;;;;;;;35.53;19.85;;;-1.40;93.80;;;;;;5025518;28;20080;-75
2021/11/23 03:35:39;;;;;;;33.33;20.50;;;-1.40;93.50;;;;;;5029276;28;20052;-75
2021/11/23 03:38:07;;;;;;;36.00;19.85;;;-1.40;93.70;;;;;;5025538;28;20022;-75
2021/11/23 03:40:34;;;;;;;42.58;22.40;;;-1.50;93.40;;;;;;5031516;28;20036;-75
2021/11/23 03:43:00;;;;;;;40.10;22.67;;;-1.40;93.30;;;;;;5034353;28;20365;-75
2021/11/23 03:45:27;;;;;;;52.95;25.42;;;-1.40;93.40;;;;;;5034514;28;20052;-75
2021/11/23 03:47:55;;;;;;;35.00;21.10;;;-1.40;92.90;;;;;;5035090;28;20167;-75
2021/11/23 03:50:22;;;;;;;44.72;22.67;;;-1.40;92.10;;;;;;5022114;28;20034;-75
2021/11/23 03:52:48;;;;;;;42.83;21.63;;;-1.30;92.60;;;;;;5014718;28;20052;-75
2021/11/23 03:55:17;;;;;;;29.83;19.60;;;-1.30;93.60;;;;;;5014620;28;20101;-75
2021/11/23 03:57:44;;;;;;;34.35;19.63;;;-1.40;93.50;;;;;;5016257;28;20415;-75
2021/11/23 04:00:11;;;;;;;34.42;19.05;;;-1.40;92.80;;;;;;5026829;28;20323;-75
2021/11/23 04:02:37;;;;;;;73.88;25.45;;;-1.40;92.30;;;;;;5034879;28;20034;-75
2021/11/23 04:05:03;;;;;;;37.47;19.75;;;-1.40;93.10;;;;;;5027515;28;20326;-75
2021/11/23 04:07:29;;;;;;;35.50;20.65;;;-1.50;93.30;;;;;;5015815;28;20025;-75
2021/11/23 04:09:55;;;;;;;70.20;27.10;;;-1.60;93.60;;;;;;5023025;28;20429;-75
2021/11/23 04:12:21;;;;;;;64.13;25.10;;;-1.70;93.70;;;;;;5026619;28;20657;-75
2021/11/23 04:14:47;;;;;;;29.05;18.52;;;-1.80;93.70;;;;;;5016155;28;20026;-75
2021/11/23 04:17:13;;;;;;;32.60;19.58;;;-1.90;94.10;;;;;;5034140;28;20116;-75
2021/11/23 04:19:38;;;;;;;36.50;19.60;;;-2.00;93.60;;;;;;5028903;28;20104;-75
2021/11/23 04:22:06;;;;;;;90.55;24.17;;;-2.10;94.30;;;;;;5020002;28;20425;-75
2021/11/23 04:24:32;;;;;;;65.93;25.17;;;-2.10;93.60;;;;;;5034060;28;20481;-75
2021/11/23 04:26:57;;;;;;;65.05;25.48;;;-2.20;93.50;;;;;;5035495;28;20097;-75
2021/11/23 04:29:24;;;;;;;111.07;30.08;;;-2.10;92.90;;;;;;5028760;28;20144;-75
2021/11/23 04:31:49;;;;;;;124.60;50.28;;;-2.10;92.50;;;;;;5030784;28;20025;-75
2021/11/23 04:34:15;;;;;;;323.90;55.17;;;-2.00;92.10;;;;;;5033046;28;20088;-75
2021/11/23 04:36:41;;;;;;;153.68;37.65;;;-1.90;91.30;;;;;;5035375;28;20021;-75
2021/11/23 04:39:07;;;;;;;224.80;40.38;;;-1.80;91.60;;;;;;5023045;28;20101;-75
2021/11/23 04:41:34;;;;;;;138.32;32.55;;;-1.80;90.90;;;;;;5032065;28;20026;-75
2021/11/23 04:44:00;;;;;;;270.65;32.78;;;-1.70;91.00;;;;;;5033180;28;20029;-75
2021/11/23 04:46:26;;;;;;;273.88;34.97;;;-1.70;90.60;;;;;;5032522;28;20038;-75
2021/11/23 04:48:52;;;;;;;266.45;34.00;;;-1.60;90.50;;;;;;5027340;28;20029;-74
2021/11/23 04:51:17;;;;;;;111.60;25.13;;;-1.60;90.40;;;;;;5022295;28;20083;-74
2021/11/23 04:53:43;;;;;;;260.38;31.25;;;-1.70;90.80;;;;;;5025706;28;20500;-74
2021/11/23 04:56:10;;;;;;;307.83;38.53;;;-1.70;89.90;;;;;;5018859;28;20064;-74
2021/11/23 04:58:36;;;;;;;411.92;40.50;;;-1.70;90.40;;;;;;5027954;28;20022;-74
2021/11/23 05:01:02;;;;;;;71.32;25.40;;;-1.80;90.30;;;;;;5025374;28;20376;-75
2021/11/23 05:03:28;;;;;;;408.30;41.58;;;-1.80;90.40;;;;;;5027843;28;20076;-75
2021/11/23 05:05:56;;;;;;;173.07;28.63;;;-1.90;90.00;;;;;;5038483;28;20025;-75
2021/11/23 05:08:22;;;;;;;166.77;27.50;;;-1.80;89.50;;;;;;5032970;28;20037;-75
2021/11/23 05:10:47;;;;;;;291.63;32.60;;;-1.80;90.00;;;;;;5030903;28;20100;-75
2021/11/23 05:13:13;;;;;;;351.67;33.53;;;-1.80;89.90;;;;;;5026388;28;20076;-76
2021/11/23 05:15:38;;;;;;;196.25;28.42;;;-1.80;89.20;;;;;;5022361;28;20030;-74
2021/11/23 05:18:04;;;;;;;259.35;32.97;;;-1.90;89.90;;;;;;5023058;28;20361;-75
2021/11/23 05:20:30;;;;;;;196.32;30.02;;;-2.00;89.60;;;;;;5023016;28;20022;-75
2021/11/23 05:22:56;;;;;;;250.30;29.75;;;-2.00;89.50;;;;;;5042101;28;20371;-75
2021/11/23 05:25:22;;;;;;;84.80;23.13;;;-2.00;89.10;;;;;;5036886;28;20029;-74
2021/11/23 05:27:47;;;;;;;66.85;21.00;;;-2.00;88.40;;;;;;5040666;28;20025;-75
2021/11/23 05:30:14;;;;;;;34.42;20.27;;;-1.80;88.10;;;;;;5034570;28;20329;-75
2021/11/23 05:32:41;;;;;;;79.05;22.83;;;-1.70;88.70;;;;;;5032558;28;20024;-75
2021/11/23 05:35:07;;;;;;;218.55;31.48;;;-1.80;89.90;;;;;;5032157;28;20414;-75
2021/11/23 05:37:33;;;;;;;108.25;24.35;;;-1.90;89.70;;;;;;5035901;28;20037;-74
2021/11/23 05:39:59;;;;;;;184.88;30.50;;;-1.80;89.10;;;;;;5036046;28;20038;-74
2021/11/23 05:42:25;;;;;;;107.43;23.52;;;-1.70;88.30;;;;;;5034155;28;20043;-75
2021/11/23 05:44:50;;;;;;;69.68;21.58;;;-1.60;88.60;;;;;;5034324;28;20048;-74
2021/11/23 05:47:16;;;;;;;81.60;21.25;;;-1.60;88.30;;;;;;5037008;28;20025;-75
2021/11/23 05:49:42;;;;;;;43.15;21.83;;;-1.60;88.70;;;;;;5036966;28;20104;-74
2021/11/23 05:52:08;;;;;;;209.90;30.77;;;-1.70;88.90;;;;;;5035701;28;20532;-74
2021/11/23 05:54:34;;;;;;;145.98;27.98;;;-1.70;89.90;;;;;;5034617;28;20053;-75
2021/11/23 05:57:01;;;;;;;198.93;30.77;;;-1.80;90.30;;;;;;5036464;28;20322;-75
2021/11/23 05:59:26;;;;;;;189.27;30.45;;;-1.90;90.20;;;;;;5032748;28;20386;-75
2021/11/23 06:01:52;;;;;;;111.15;25.13;;;-2.00;89.90;;;;;;5035259;28;20107;-73
2021/11/23 06:04:18;;;;;;;64.22;25.27;;;-2.00;90.00;;;;;;5036100;28;20033;-74
2021/11/23 06:06:44;;;;;;;113.55;26.67;;;-2.00;89.40;;;;;;5029776;28;20338;-74
2021/11/23 06:09:09;;;;;;;136.93;29.35;;;-1.90;88.80;;;;;;5031916;28;20457;-75
2021/11/23 06:11:35;;;;;;;210.48;31.00;;;-2.00;89.20;;;;;;5035701;28;20042;-75
2021/11/23 06:14:01;;;;;;;158.52;28.63;;;-2.00;89.80;;;;;;5036737;28;20021;-75
2021/11/23 06:16:29;;;;;;;207.30;32.83;;;-2.10;90.10;;;;;;5036387;28;20025;-74
2021/11/23 06:18:55;;;;;;;58.13;22.35;;;-2.00;89.10;;;;;;5037008;28;20460;-75
2021/11/23 06:21:21;;;;;;;39.67;19.08;;;-2.00;88.60;;;;;;5037456;28;20486;-74
2021/11/23 06:23:48;;;;;;;192.80;29.20;;;-1.90;88.70;;;;;;5034629;28;20066;-75
2021/11/23 06:26:18;;;;;;;265.15;34.35;;;-2.00;89.80;;;;;;5037107;28;20028;-74
2021/11/23 06:28:44;;;;;;;264.25;35.67;;;-2.00;90.10;;;;;;5037149;28;20440;-75
2021/11/23 06:31:09;;;;;;;65.03;22.77;;;-2.10;90.20;;;;;;5036104;28;20108;-74
2021/11/23 06:33:35;;;;;;;183.00;28.88;;;-2.10;89.80;;;;;;5035447;28;20032;-75
2021/11/23 06:36:01;;;;;;;179.20;27.73;;;-2.20;90.10;;;;;;5036552;28;20369;-75
2021/11/23 06:38:26;;;;;;;125.45;27.33;;;-2.20;89.20;;;;;;5035294;28;20318;-75
2021/11/23 06:40:52;;;;;;;160.40;30.67;;;-2.30;89.40;;;;;;5035763;28;20033;-75
2021/11/23 06:43:17;;;;;;;58.08;22.20;;;-2.20;89.10;;;;;;5037258;28;20163;-75
2021/11/23 06:45:43;;;;;;;55.20;22.05;;;-2.20;88.70;;;;;;5037231;28;20053;-75
2021/11/23 06:48:10;;;;;;;90.40;23.92;;;-2.10;88.00;;;;;;5037470;28;20029;-75
2021/11/23 06:50:37;;;;;;;65.85;22.05;;;-2.10;88.70;;;;;;5037002;28;20033;-75
2021/11/23 06:53:05;;;;;;;154.45;28.08;;;-2.10;88.70;;;;;;5037067;28;20029;-75
2021/11/23 06:55:30;;;;;;;85.70;24.05;;;-2.10;88.70;;;;;;5035939;28;20433;-74
2021/11/23 06:57:56;;;;;;;166.48;29.50;;;-2.10;88.30;;;;;;5036923;28;20021;-75
2021/11/23 07:00:22;;;;;;;152.38;28.67;;;-2.00;88.60;;;;;;5037111;28;20033;-74
2021/11/23 07:02:48;;;;;;;163.18;30.90;;;-2.10;89.10;;;;;;5036467;28;20056;-74
2021/11/23 07:05:14;;;;;;;68.60;26.77;;;-2.10;89.00;;;;;;5036855;28;20590;-75
2021/11/23 07:07:40;;;;;;;48.97;23.38;;;-2.00;88.40;;;;;;5037067;28;20381;-75
2021/11/23 07:10:07;;;;;;;136.50;28.85;;;-2.00;88.30;;;;;;5035362;28;20041;-75
2021/11/23 07:12:33;;;;;;;123.65;28.00;;;-1.90;88.10;;;;;;5036673;28;20034;-75
2021/11/23 07:14:59;;;;;;;56.60;24.25;;;-1.90;88.30;;;;;;5036612;28;20018;-74
2021/11/23 07:17:25;;;;;;;63.17;25.48;;;-1.80;88.60;;;;;;5036613;28;20026;-75
2021/11/23 07:19:50;;;;;;;105.50;26.80;;;-1.80;88.50;;;;;;5036627;28;20032;-74
2021/11/23 07:22:19;;;;;;;133.70;31.65;;;-1.70;88.10;;;;;;5036595;28;20029;-75
2021/11/23 07:24:45;;;;;;;112.55;29.52;;;-1.70;88.40;;;;;;5035391;28;20034;-75
2021/11/23 07:27:11;;;;;;;61.10;26.52;;;-1.70;88.00;;;;;;5035510;28;20475;-74
2021/11/23 07:29:37;;;;;;;112.43;29.77;;;-1.60;88.10;;;;;;5036298;28;20049;-75
2021/11/23 07:32:07;;;;;;;129.45;41.67;;;-1.60;88.30;;;;;;5035265;28;20036;-74
2021/11/23 07:34:33;;;;;;;52.13;25.13;;;-1.60;89.00;;;;;;5035588;28;20025;-75
2021/11/23 07:36:59;;;;;;;69.55;29.88;;;-1.60;88.60;;;;;;5017411;28;20037;-75
2021/11/23 07:39:27;;;;;;;50.35;27.20;;;-1.50;88.60;;;;;;5021640;28;20021;-75
2021/11/23 07:41:53;;;;;;;90.55;37.03;;;-1.50;88.30;;;;;;5018748;28;20431;-75
2021/11/23 07:44:18;;;;;;;63.60;30.17;;;-1.40;88.90;;;;;;5016534;28;20026;-74
2021/11/23 07:46:44;;;;;;;55.70;30.45;;;-1.40;88.90;;;;;;5016312;28;20427;-74
2021/11/23 07:49:10;;;;;;;52.38;28.63;;;-1.30;88.20;;;;;;5016374;28;20026;-74
2021/11/23 07:51:36;;;;;;;92.45;38.08;;;-1.20;88.80;;;;;;5025946;28;20377;-73
2021/11/23 07:54:02;;;;;;;54.30;27.92;;;-1.20;89.40;;;;;;5034823;28;20033;-74
2021/11/23 07:56:28;;;;;;;50.50;26.42;;;-1.20;89.20;;;;;;5036146;28;20025;-75
2021/11/23 07:58:54;;;;;;;64.28;29.73;;;-1.10;88.90;;;;;;5035641;28;20036;-75
2021/11/23 08:01:19;;;;;;;61.10;29.35;;;-1.00;89.20;;;;;;5034579;28;20021;-75
2021/11/23 08:03:45;;;;;;;57.47;28.08;;;-1.00;89.30;;;;;;5035893;28;20310;-75
2021/11/23 08:06:11;;;;;;;68.10;30.52;;;-1.10;90.10;;;;;;5035961;28;20461;-75
2021/11/23 08:08:38;;;;;;;50.80;27.42;;;-1.10;90.40;;;;;;5034642;28;20029;-76
2021/11/23 08:11:07;;;;;;;60.17;29.50;;;-1.00;89.90;;;;;;5034934;28;20365;-76
2021/11/23 08:13:33;;;;;;;46.88;26.10;;;-1.00;89.90;;;;;;5035798;28;20040;-74
2021/11/23 08:16:03;;;;;;;49.33;27.17;;;-0.80;89.30;;;;;;5035316;28;20056;-75
2021/11/23 08:18:34;;;;;;;39.28;23.10;;;-0.60;89.30;;;;;;5035703;28;20021;-74
2021/11/23 08:21:00;;;;;;;35.53;21.67;;;-0.40;89.90;;;;;;5035722;28;20056;-75
2021/11/23 08:23:26;;;;;;;33.50;20.45;;;-0.10;88.80;;;;;;5027203;28;20308;-74
2021/11/23 08:25:54;;;;;;;29.60;18.52;;;0.30;88.10;;;;;;5019138;28;20026;-75
2021/11/23 08:28:22;;;;;;;29.17;18.42;;;0.50;92.00;;;;;;5017013;28;20029;-76
2021/11/23 08:30:48;;;;;;;28.70;17.38;;;0.40;96.30;;;;;;5028604;28;20470;-75
2021/11/23 08:33:14;;;;;;;31.88;20.10;;;0.20;97.40;;;;;;5034532;28;20148;-75
2021/11/23 08:35:42;;;;;;;44.58;25.67;;;0.00;98.00;;;;;;5035642;28;20105;-75
2021/11/23 08:38:08;;;;;;;38.70;23.50;;;-0.40;98.00;;;;;;5035491;28;20291;-74
2021/11/23 08:40:38;;;;;;;44.58;24.95;;;-0.70;98.00;;;;;;5038819;28;20024;-74
2021/11/23 08:43:04;;;;;;;65.30;27.75;;;-0.90;97.90;;;;;;5039428;28;20555;-74
2021/11/23 08:45:30;;;;;;;50.22;27.88;;;-1.00;97.70;;;;;;5039130;28;20103;-75
2021/11/23 08:47:56;;;;;;;90.68;31.20;;;-1.00;96.40;;;;;;5038535;28;20088;-75
2021/11/23 08:50:22;;;;;;;88.45;29.45;;;-0.80;96.40;;;;;;5039435;28;20029;-74
2021/11/23 08:52:48;;;;;;;56.95;29.17;;;-0.70;96.00;;;;;;5038527;28;20018;-75
2021/11/23 08:55:14;;;;;;;101.88;31.58;;;-0.70;96.30;;;;;;5038074;28;20334;-75
2021/11/23 08:57:39;;;;;;;63.92;26.60;;;-0.70;96.80;;;;;;5039218;28;20028;-74
2021/11/23 09:00:18;;;;;;;51.03;28.05;;;-0.80;97.20;;;;;;5038121;28;20032;-75
2021/11/23 09:02:48;;;;;;;53.38;26.25;;;-0.90;97.00;;;;;;5038186;28;20032;-75
2021/11/23 09:05:14;;;;;;;41.75;24.75;;;-0.80;96.50;;;;;;5039292;28;20041;-74
2021/11/23 09:07:42;;;;;;;49.90;27.17;;;-0.80;96.80;;;;;;5038193;28;20025;-75
2021/11/23 09:10:12;;;;;;;48.20;27.38;;;-0.70;96.60;;;;;;5037660;28;20124;-74
2021/11/23 09:12:37;;;;;;;41.20;25.05;;;-0.60;97.20;;;;;;5038092;28;20037;-74
2021/11/23 09:15:03;;;;;;;42.30;24.13;;;-0.50;97.10;;;;;;5038527;28;20075;-75
2021/11/23 09:17:29;;;;;;;47.70;27.45;;;-0.30;97.50;;;;;;5038763;28;20022;-75
2021/11/23 09:19:55;;;;;;;59.15;24.55;;;-0.20;97.50;;;;;;5037912;28;20022;-75
2021/11/23 09:22:21;;;;;;;84.60;26.98;;;0.10;98.00;;;;;;5038676;28;20037;-75
2021/11/23 09:24:46;;;;;;;73.75;29.65;;;0.20;98.00;;;;;;5017893;28;20038;-74
2021/11/23 09:27:12;;;;;;;63.65;27.38;;;0.00;98.00;;;;;;5033819;28;20033;-75
2021/11/23 09:29:40;;;;;;;52.33;26.13;;;0.00;98.00;;;;;;5037574;28;20485;-75
2021/11/23 09:32:07;;;;;;;40.67;25.33;;;0.30;98.00;;;;;;5035500;28;20029;-75
2021/11/23 09:34:33;;;;;;;41.22;25.13;;;0.70;98.00;;;;;;5037020;28;20312;-75
2021/11/23 09:36:58;;;;;;;40.83;23.95;;;0.90;98.00;;;;;;5037594;28;20024;-75
2021/11/23 09:39:24;;;;;;;40.10;24.20;;;0.80;98.00;;;;;;5037143;28;20041;-75
2021/11/23 09:41:51;;;;;;;43.80;26.48;;;0.70;98.00;;;;;;5038020;28;20030;-74
2021/11/23 09:44:17;;;;;;;43.30;26.25;;;0.50;98.00;;;;;;5037731;28;20037;-74
2021/11/23 09:46:42;;;;;;;40.92;25.20;;;0.30;98.00;;;;;;5038264;28;20036;-74
2021/11/23 09:49:08;;;;;;;44.90;28.02;;;0.30;98.00;;;;;;5037387;28;20124;-75
2021/11/23 09:51:36;;;;;;;39.53;24.77;;;0.50;98.00;;;;;;5035813;28;20033;-75
2021/11/23 09:54:04;;;;;;;41.85;25.15;;;0.60;98.00;;;;;;5036100;28;20029;-75
2021/11/23 09:56:31;;;;;;;45.15;28.00;;;0.70;98.00;;;;;;5032821;28;20041;-75
2021/11/23 09:58:57;;;;;;;46.30;24.83;;;0.60;98.00;;;;;;5017015;28;20029;-75
2021/11/23 10:01:25;;;;;;;47.55;27.00;;;0.70;98.00;;;;;;5033809;28;20031;-75
2021/11/23 10:03:53;;;;;;;65.85;26.38;;;0.50;98.00;;;;;;5044461;28;20435;-75
2021/11/23 10:06:23;;;;;;;50.83;29.10;;;0.30;98.00;;;;;;5018278;28;20037;-75
2021/11/23 10:08:51;;;;;;;59.63;29.42;;;0.30;98.00;;;;;;5016997;28;20033;-75
2021/11/23 10:11:35;;;;;;;52.70;28.33;;;0.10;98.00;;;;;;5024812;28;20029;-75
2021/11/23 10:14:04;;;;;;;55.17;27.33;;;0.20;98.00;;;;;;5037198;28;20407;-75
2021/11/23 10:16:47;;;;;;;45.33;26.55;;;0.20;98.00;;;;;;5037547;28;20039;-75
2021/11/23 10:19:15;;;;;;;44.58;26.40;;;0.50;98.00;;;;;;5037891;28;20075;-75
2021/11/23 10:21:56;;;;;;;41.92;25.33;;;0.40;98.00;;;;;;5037474;28;20637;-75
2021/11/23 10:24:22;;;;;;;39.95;24.88;;;0.40;98.00;;;;;;5036010;28;20037;-75
2021/11/23 10:26:48;;;;;;;35.25;22.65;;;0.40;98.00;;;;;;5036676;28;20029;-75
2021/11/23 10:29:15;;;;;;;38.20;24.40;;;0.60;98.00;;;;;;5036462;28;20036;-75
2021/11/23 10:31:45;;;;;;;40.55;24.83;;;0.70;98.00;;;;;;5036489;28;20269;-75
2021/11/23 10:34:13;;;;;;;32.45;20.33;;;0.60;98.00;;;;;;5037572;28;20022;-75
2021/11/23 10:36:45;;;;;;;37.22;22.75;;;0.70;98.00;;;;;;5036164;28;20095;-76
2021/11/23 10:39:17;;;;;;;34.20;21.45;;;1.00;98.00;;;;;;5035320;28;20072;-75
2021/11/23 10:41:49;;;;;;;30.73;19.50;;;1.20;98.00;;;;;;5037164;28;20021;-74
2021/11/23 10:44:20;;;;;;;32.88;20.60;;;1.70;98.00;;;;;;5037432;28;20029;-75
2021/11/23 10:46:56;;;;;;;32.55;20.60;;;2.00;98.00;;;;;;5036914;28;20036;-75
2021/11/23 10:49:29;;;;;;;30.13;19.75;;;1.90;98.00;;;;;;5036260;28;20307;-75
2021/11/23 10:51:54;;;;;;;27.50;18.55;;;1.90;98.00;;;;;;5036888;28;20033;-76
2021/11/23 10:54:21;;;;;;;31.42;20.05;;;2.10;98.00;;;;;;5034882;28;20022;-76
2021/11/23 10:57:02;;;;;;;28.48;20.23;;;2.00;98.00;;;;;;5036908;28;20025;-77
2021/11/23 10:59:28;;;;;;;24.08;16.95;;;1.70;98.00;;;;;;5037180;28;20084;-76
2021/11/23 11:01:55;;;;;;;29.17;19.90;;;2.00;98.00;;;;;;5036538;28;20029;-76
2021/11/23 11:04:22;;;;;;;34.83;22.20;;;2.40;98.00;;;;;;5036913;28;20088;-76
2021/11/23 11:06:49;;;;;;;32.00;19.92;;;1.80;98.00;;;;;;5037031;28;20031;-76
2021/11/23 11:09:15;;;;;;;30.02;19.50;;;2.10;98.00;;;;;;5034355;28;20110;-76
2021/11/23 11:11:42;;;;;;;25.63;17.58;;;2.70;98.00;;;;;;5036256;28;20460;-75
2021/11/23 11:14:11;;;;;;;25.15;15.88;;;3.60;98.00;;;;;;5036794;28;20026;-76
2021/11/23 11:16:38;;;;;;;24.90;17.50;;;4.60;98.00;;;;;;5036445;28;20028;-76
2021/11/23 11:19:06;;;;;;;24.33;17.15;;;5.10;96.90;;;;;;5036565;28;20339;-76
2021/11/23 11:21:35;;;;;;;23.48;16.67;;;5.80;96.00;;;;;;5035542;28;20120;-76
2021/11/23 11:24:24;;;;;;;21.95;15.55;;;6.00;93.40;;;;;;5035382;28;20031;-76
2021/11/23 11:26:54;;;;;;;22.23;15.38;;;5.80;93.60;;;;;;5036110;28;20033;-75
2021/11/23 11:29:30;;;;;;;25.92;15.82;;;5.90;93.30;;;;;;5024080;28;20025;-76
2021/11/23 11:31:58;;;;;;;19.75;15.07;;;6.20;92.90;;;;;;5016493;28;20067;-76
2021/11/23 11:34:32;;;;;;;20.40;14.82;;;6.40;91.90;;;;;;5016762;28;20412;-76
2021/11/23 11:37:03;;;;;;;19.20;13.98;;;6.20;91.50;;;;;;5019743;28;20304;-75
2021/11/23 11:39:37;;;;;;;20.58;14.50;;;6.20;91.40;;;;;;5034239;28;20034;-75
2021/11/23 11:42:08;;;;;;;17.92;13.60;;;6.50;90.30;;;;;;5035310;28;20029;-75
2021/11/23 11:44:38;;;;;;;16.08;11.07;;;6.70;90.40;;;;;;5028911;28;20342;-76
2021/11/23 11:47:07;;;;;;;17.05;11.57;;;7.30;88.20;;;;;;5015316;28;20490;-76
2021/11/23 11:49:53;;;;;;;13.73;10.43;;;7.70;86.80;;;;;;5016410;28;20033;-76
2021/11/23 11:52:23;;;;;;;15.18;11.60;;;8.10;84.40;;;;;;5018206;28;20098;-76
2021/11/23 11:55:11;;;;;;;15.27;11.52;;;8.30;85.10;;;;;;5032435;28;20025;-75
2021/11/23 11:57:50;;;;;;;13.90;10.18;;;8.70;83.10;;;;;;5015678;28;20057;-76
2021/11/23 12:00:28;;;;;;;17.17;10.52;;;9.10;82.20;;;;;;5021502;28;20526;-76
2021/11/23 12:03:00;;;;;;;13.40;10.52;;;9.20;80.50;;;;;;5028787;28;20037;-76
2021/11/23 12:05:49;;;;;;;20.17;12.07;;;9.30;80.60;;;;;;5031284;28;20109;-76
2021/11/23 12:08:25;;;;;;;14.80;10.98;;;8.50;80.50;;;;;;5033016;28;20016;-76
2021/11/23 12:10:51;;;;;;;14.75;10.73;;;7.80;84.10;;;;;;5034073;28;20042;-76
2021/11/23 12:13:35;;;;;;;17.92;12.15;;;8.20;84.00;;;;;;5033765;28;20068;-76
2021/11/23 12:16:05;;;;;;;;;;;8.30;81.80;;;;;;5030802;28;20097;-76
2021/11/23 12:18:59;;;;;;;19.50;12.43;;;8.30;83.70;;;;;;5057799;28;19923;-76
2021/11/23 12:21:29;;;;;;;19.38;12.43;;;8.50;83.10;;;;;;5035301;28;20017;-76
2021/11/23 12:24:00;;;;;;;17.70;12.45;;;8.20;82.80;;;;;;5024365;28;20045;-74
2021/11/23 12:26:38;;;;;;;12.23;9.68;;;7.80;84.90;;;;;;5033087;28;20041;-75
2021/11/23 12:29:13;;;;;;;13.50;8.90;;;7.80;84.90;;;;;;5032511;28;20034;-75
2021/11/23 12:31:51;;;;;;;14.57;9.27;;;8.30;83.10;;;;;;5034329;28;20037;-76